Time;durP1;ratioP1;P1;durP2;ratioP2;P2;SDS_P1;SDS_P2;PMS_P1;PMS_P2;Temp;Humidity;BMP_temperature;BMP_pressure;BME280_temperature;BME280_humidity;BME280_pressure;Samples;Min_cycle;Max_cycle;Signal;HPM_P1;HPM_P2
2020/12/23 00:00:09;;;;;;;2.47;1.10;;;;;;;11.03;86.94;96252.59;1045041;28;20147;-42
2020/12/23 00:00:40;;;;;;;3.17;1.10;;;;;;;11.01;86.58;96260.69;1045041;28;20021;-43
2020/12/23 00:01:10;;;;;;;2.33;1.00;;;;;;;11.00;86.24;96266.97;1045487;28;20021;-43
2020/12/23 00:01:40;;;;;;;2.17;0.90;;;;;;;11.02;86.86;96257.06;1045270;28;20028;-42
2020/12/23 00:02:11;;;;;;;2.57;1.20;;;;;;;11.05;86.00;96260.31;1045189;28;20086;-42
2020/12/23 00:02:42;;;;;;;2.70;0.90;;;;;;;11.05;86.43;96260.31;1045138;28;20032;-43
2020/12/23 00:03:12;;;;;;;2.43;0.90;;;;;;;11.04;86.29;96256.84;1045108;28;20047;-43
2020/12/23 00:03:43;;;;;;;2.67;1.20;;;;;;;11.02;85.96;96254.41;1045189;28;20013;-43
2020/12/23 00:04:13;;;;;;;2.27;1.10;;;;;;;11.02;86.23;96254.41;1045264;28;20016;-43
2020/12/23 00:04:44;;;;;;;6.23;1.30;;;;;;;11.03;85.86;96268.41;1045064;28;20013;-42
2020/12/23 00:05:15;;;;;;;1.87;0.90;;;;;;;11.05;85.64;96257.66;1045281;28;20020;-43
2020/12/23 00:05:45;;;;;;;2.60;0.90;;;;;;;11.04;85.99;96251.59;1045175;28;20017;-42
2020/12/23 00:06:16;;;;;;;2.60;1.13;;;;;;;11.10;85.59;96265.78;1045268;28;20365;-42
2020/12/23 00:06:46;;;;;;;5.47;1.57;;;;;;;11.11;84.86;96265.59;1045180;28;20024;-42
2020/12/23 00:07:17;;;;;;;1.97;0.90;;;;;;;11.11;85.25;96262.97;1045148;28;20013;-42
2020/12/23 00:07:47;;;;;;;1.87;0.93;;;;;;;11.11;85.26;96256.88;1045330;28;20071;-42
2020/12/23 00:08:18;;;;;;;2.70;1.10;;;;;;;11.11;85.26;96262.16;1045161;28;20017;-42
2020/12/23 00:08:48;;;;;;;3.40;1.10;;;;;;;11.11;85.10;96262.16;1045219;28;20067;-42
2020/12/23 00:09:19;;;;;;;3.33;1.10;;;;;;;11.07;85.13;96266.19;1044795;28;20028;-42
2020/12/23 00:09:49;;;;;;;2.20;0.83;;;;;;;11.06;85.20;96254.03;1044910;28;20025;-42
2020/12/23 00:10:20;;;;;;;2.17;1.00;;;;;;;11.09;84.95;96261.53;1044827;28;20067;-42
2020/12/23 00:10:51;;;;;;;2.78;1.05;;;;;;;11.08;85.17;96255.44;1044732;28;20021;-43
2020/12/23 00:11:21;;;;;;;2.20;0.97;;;;;;;11.08;84.98;96262.53;1045247;28;20449;-43
2020/12/23 00:11:55;;;;;;;1.87;0.90;;;;;;;11.08;84.94;96258.06;1045149;28;20013;-46
2020/12/23 00:12:26;;;;;;;2.13;0.82;;;;;;;11.09;85.12;96264.97;1045175;28;20027;-42
2020/12/23 00:12:56;;;;;;;2.90;1.00;;;;;;;11.09;85.44;96258.91;1044885;28;20083;-44
2020/12/23 00:13:27;;;;;;;3.03;1.00;;;;;;;11.08;84.88;96254.63;1045104;28;20013;-45
2020/12/23 00:13:57;;;;;;;2.17;0.90;;;;;;;11.08;84.71;96257.28;1045135;28;20125;-43
2020/12/23 00:14:27;;;;;;;2.20;0.90;;;;;;;11.07;84.52;96258.28;1044628;28;20017;-42
2020/12/23 00:14:58;;;;;;;3.23;0.90;;;;;;;11.06;84.65;96265.38;1044831;28;20036;-46
2020/12/23 00:15:29;;;;;;;2.57;1.10;;;;;;;11.08;84.81;96259.91;1044793;28;20025;-44
2020/12/23 00:15:59;;;;;;;2.10;1.03;;;;;;;11.06;84.92;96261.94;1044831;28;20059;-44
2020/12/23 00:16:30;;;;;;;4.43;1.30;;;;;;;11.08;85.07;96263.34;1045251;28;20036;-44
2020/12/23 00:17:00;;;;;;;2.37;1.00;;;;;;;11.06;84.58;96254.84;1045424;28;20024;-42
2020/12/23 00:17:30;;;;;;;2.40;1.00;;;;;;;11.08;84.40;96260.72;1045496;28;20104;-43
2020/12/23 00:18:01;;;;;;;2.70;1.00;;;;;;;11.03;85.21;96249.94;1045254;28;20458;-44
2020/12/23 00:18:31;;;;;;;2.90;1.10;;;;;;;11.04;84.51;96259.50;1044723;28;20021;-43
2020/12/23 00:19:02;;;;;;;2.13;0.90;;;;;;;11.05;84.46;96269.00;1044767;28;20073;-43
2020/12/23 00:19:35;;;;;;;2.20;1.00;;;;;;;11.06;84.70;96254.03;1045092;28;20045;-43
2020/12/23 00:20:06;;;;;;;2.33;1.00;;;;;;;11.12;84.08;96253.25;1045218;28;20025;-43
2020/12/23 00:20:36;;;;;;;1.90;0.90;;;;;;;11.10;84.31;96256.06;1045147;28;20474;-43
2020/12/23 00:21:09;;;;;;;2.60;0.90;;;;;;;11.11;84.19;96255.06;1045196;28;20017;-43
2020/12/23 00:21:40;;;;;;;2.63;0.90;;;;;;;11.14;83.89;96259.13;1045033;28;20053;-43
2020/12/23 00:22:10;;;;;;;2.43;1.00;;;;;;;11.15;83.88;96271.31;1045083;28;20363;-43
2020/12/23 00:22:41;;;;;;;2.13;0.90;;;;;;;11.20;83.73;96259.19;1045066;28;20025;-43
2020/12/23 00:23:11;;;;;;;2.00;0.80;;;;;;;11.20;83.38;96253.06;1044846;28;20358;-43
2020/12/23 00:23:42;;;;;;;2.10;0.90;;;;;;;11.23;83.13;96254.50;1045169;28;20021;-44
2020/12/23 00:24:12;;;;;;;2.30;0.90;;;;;;;11.26;82.93;96260.19;1044945;28;20029;-43
2020/12/23 00:24:43;;;;;;;1.50;0.80;;;;;;;11.27;83.33;96246.03;1045235;28;20030;-45
2020/12/23 00:25:13;;;;;;;2.03;0.90;;;;;;;11.26;83.07;96254.13;1045028;28;20426;-44
2020/12/23 00:25:44;;;;;;;1.80;0.90;;;;;;;11.22;83.28;96253.72;1045175;28;20016;-45
2020/12/23 00:26:14;;;;;;;2.37;0.90;;;;;;;11.23;83.13;96260.59;1045138;28;20021;-44
2020/12/23 00:26:45;;;;;;;1.87;0.87;;;;;;;11.20;83.46;96253.06;1045195;28;20028;-43
2020/12/23 00:27:19;;;;;;;2.50;1.00;;;;;;;11.19;83.40;96254.91;1044994;28;20124;-43
2020/12/23 00:27:49;;;;;;;2.28;0.80;;;;;;;11.20;83.50;96253.91;1044745;28;20109;-44
2020/12/23 00:28:20;;;;;;;1.83;0.90;;;;;;;11.21;83.16;96246.81;1045014;28;20420;-43
2020/12/23 00:28:50;;;;;;;1.83;0.77;;;;;;;11.24;82.91;96256.94;1044743;28;20017;-44
2020/12/23 00:29:20;;;;;;;2.57;0.90;;;;;;;11.23;83.34;96249.25;1044914;28;20096;-43
2020/12/23 00:29:51;;;;;;;1.97;0.90;;;;;;;11.23;83.48;96254.50;1045094;28;20021;-43
2020/12/23 00:30:21;;;;;;;2.13;0.90;;;;;;;11.19;83.14;96257.53;1045055;28;20021;-42
2020/12/23 00:30:52;;;;;;;2.47;0.90;;;;;;;11.24;82.99;96262.22;1045167;28;20032;-43
2020/12/23 00:31:22;;;;;;;2.27;1.00;;;;;;;11.25;82.66;96253.31;1045064;28;20409;-43
2020/12/23 00:31:53;;;;;;;2.00;0.93;;;;;;;11.22;82.79;96253.72;1045138;28;20028;-44
2020/12/23 00:32:27;;;;;;;2.67;0.90;;;;;;;11.17;83.27;96256.09;1045104;28;20048;-43
2020/12/23 00:32:57;;;;;;;2.15;1.00;;;;;;;11.18;82.76;96255.09;1044815;28;20021;-43
2020/12/23 00:33:28;;;;;;;1.50;0.70;;;;;;;11.25;82.22;96258.59;1044976;28;20021;-43
2020/12/23 00:33:58;;;;;;;2.10;0.90;;;;;;;11.27;82.63;96251.28;1045192;28;20079;-42
2020/12/23 00:34:29;;;;;;;1.60;0.80;;;;;;;11.27;82.63;96245.22;1045032;28;20075;-42
2020/12/23 00:34:59;;;;;;;2.13;0.90;;;;;;;11.24;82.67;96256.16;1044778;28;20017;-42
2020/12/23 00:35:30;;;;;;;2.00;0.90;;;;;;;11.25;82.58;96247.22;1045033;28;20374;-43
2020/12/23 00:36:00;;;;;;;2.37;0.90;;;;;;;11.25;82.57;96252.47;1045012;28;20028;-42
2020/12/23 00:36:31;;;;;;;1.77;0.80;;;;;;;11.23;82.69;96260.59;1044723;28;20586;-44
2020/12/23 00:37:01;;;;;;;2.03;0.80;;;;;;;11.28;82.34;96258.19;1044817;28;20029;-42
2020/12/23 00:37:32;;;;;;;2.20;1.10;;;;;;;11.27;82.26;96255.75;1040691;28;20025;-42
2020/12/23 00:38:02;;;;;;;3.23;0.83;;;;;;;11.27;81.87;96261.84;1040657;28;20021;-43
2020/12/23 00:38:32;;;;;;;3.00;0.90;;;;;;;11.29;82.18;96259.81;1044744;28;20468;-42
2020/12/23 00:39:03;;;;;;;2.73;1.00;;;;;;;11.30;81.77;96255.38;1044852;28;20024;-43
2020/12/23 00:39:34;;;;;;;1.90;0.93;;;;;;;11.28;82.32;96254.72;1045042;28;20021;-43
2020/12/23 00:40:04;;;;;;;1.90;0.90;;;;;;;11.29;81.73;96265.06;1044740;28;20021;-42
2020/12/23 00:40:35;;;;;;;2.80;0.83;;;;;;;11.31;81.82;96257.81;1044882;28;20452;-42
2020/12/23 00:41:11;;;;;;;1.43;0.80;;;;;;;11.31;81.88;96252.53;1044871;28;20017;-42
2020/12/23 00:41:44;;;;;;;2.03;0.95;;;;;;;11.30;81.75;96253.53;1044792;28;20531;-42
2020/12/23 00:42:14;;;;;;;2.33;0.90;;;;;;;11.32;81.61;96256.78;1045036;28;20099;-43
2020/12/23 00:42:44;;;;;;;1.77;0.93;;;;;;;11.32;82.09;96245.44;1044828;28;20043;-42
2020/12/23 00:43:15;;;;;;;3.00;0.90;;;;;;;11.31;81.93;96255.16;1044949;28;20017;-43
2020/12/23 00:43:45;;;;;;;2.20;0.80;;;;;;;11.35;81.54;96253.75;1045094;28;20029;-42
2020/12/23 00:44:16;;;;;;;1.60;0.80;;;;;;;11.36;81.33;96250.09;1044876;28;20029;-43
2020/12/23 00:44:47;;;;;;;2.30;1.00;;;;;;;11.36;81.33;96244.84;1044756;28;20458;-43
2020/12/23 00:45:17;;;;;;;1.90;0.80;;;;;;;11.35;81.04;96247.66;1044778;28;20107;-42
2020/12/23 00:45:47;;;;;;;1.70;0.90;;;;;;;11.34;81.33;96251.31;1040445;28;20037;-43
2020/12/23 00:46:18;;;;;;;1.77;0.80;;;;;;;11.34;81.21;96251.31;1044549;28;20016;-43
2020/12/23 00:46:51;;;;;;;2.67;0.80;;;;;;;11.32;81.54;96240.97;1044730;28;20020;-43
2020/12/23 00:47:21;;;;;;;3.15;1.00;;;;;;;11.32;81.35;96246.22;1044704;28;20024;-43
2020/12/23 00:47:52;;;;;;;2.17;0.77;;;;;;;11.30;81.43;96250.09;1045090;28;20025;-43
2020/12/23 00:48:22;;;;;;;1.67;0.77;;;;;;;11.36;81.24;96252.75;1044943;28;20024;-42
2020/12/23 00:48:53;;;;;;;1.20;0.70;;;;;;;11.41;80.71;96267.97;1044963;28;20454;-43
2020/12/23 00:49:23;;;;;;;1.80;0.80;;;;;;;11.46;80.21;96248.94;1044940;28;20044;-44
2020/12/23 00:49:54;;;;;;;2.93;0.90;;;;;;;11.46;80.51;96248.94;1045160;28;20112;-42
2020/12/23 00:50:24;;;;;;;1.50;0.77;;;;;;;11.46;80.66;96248.94;1044578;28;20100;-43
2020/12/23 00:50:55;;;;;;;1.97;0.80;;;;;;;11.46;80.16;96243.66;1044707;28;20435;-43
2020/12/23 00:51:25;;;;;;;1.63;0.80;;;;;;;11.45;80.71;96242.00;1044605;28;20099;-43
2020/12/23 00:51:56;;;;;;;2.47;0.80;;;;;;;11.42;80.85;96237.97;1044727;28;20086;-44
2020/12/23 00:52:26;;;;;;;1.90;0.90;;;;;;;11.41;80.55;96240.81;1044973;28;20109;-42
2020/12/23 00:52:57;;;;;;;1.60;0.80;;;;;;;11.37;80.91;96238.56;1044807;28;20062;-43
2020/12/23 00:53:27;;;;;;;1.73;0.90;;;;;;;11.36;80.78;96244.84;1044996;28;20124;-44
2020/12/23 00:53:58;;;;;;;1.30;0.80;;;;;;;11.38;80.71;96247.28;1044935;28;20013;-43
2020/12/23 00:54:28;;;;;;;2.83;1.03;;;;;;;11.32;81.21;96243.59;1044983;28;20016;-43
2020/12/23 00:54:58;;;;;;;1.93;0.80;;;;;;;11.30;80.95;96242.19;1044928;28;20070;-42
2020/12/23 00:55:29;;;;;;;2.80;1.03;;;;;;;11.26;81.44;96243.59;1045015;28;20434;-46
2020/12/23 00:55:59;;;;;;;3.00;0.90;;;;;;;11.25;81.53;96244.59;1044815;28;20020;-42
2020/12/23 00:56:30;;;;;;;1.50;0.70;;;;;;;11.31;81.20;96246.44;1044914;28;20061;-42
2020/12/23 00:57:00;;;;;;;2.93;0.90;;;;;;;11.30;81.01;96250.09;1044549;28;20013;-45
2020/12/23 00:57:31;;;;;;;2.03;0.90;;;;;;;11.33;81.17;96247.88;1044694;28;20009;-43
2020/12/23 00:58:01;;;;;;;2.13;0.87;;;;;;;11.35;80.50;96243.19;1044574;28;20013;-43
2020/12/23 00:58:32;;;;;;;1.50;0.80;;;;;;;11.34;80.63;96235.50;1044694;28;20062;-44
2020/12/23 00:59:02;;;;;;;2.00;0.90;;;;;;;11.35;80.62;96245.84;1044996;28;20016;-45
2020/12/23 00:59:33;;;;;;;3.17;0.90;;;;;;;11.36;80.82;96244.84;1045094;28;20024;-43
2020/12/23 01:00:04;;;;;;;3.13;0.90;;;;;;;11.33;80.67;96237.31;1045090;28;20401;-45
2020/12/23 01:00:35;;;;;;;1.70;0.80;;;;;;;11.32;81.02;96254.13;1044934;28;20013;-44
2020/12/23 01:01:05;;;;;;;1.83;0.90;;;;;;;11.31;80.95;96244.63;1044895;28;20477;-44
2020/12/23 01:01:36;;;;;;;3.37;0.73;;;;;;;11.30;81.04;96240.34;1044510;28;20036;-43
2020/12/23 01:02:06;;;;;;;1.77;0.90;;;;;;;11.30;80.75;96239.56;1040606;28;20005;-44
2020/12/23 01:02:37;;;;;;;2.23;0.87;;;;;;;11.29;81.24;96240.56;1036231;28;20359;-44
2020/12/23 01:03:07;;;;;;;3.07;0.87;;;;;;;11.26;81.09;96244.38;1036577;28;20064;-44
2020/12/23 01:03:38;;;;;;;2.20;0.90;;;;;;;11.25;81.20;96253.31;1040767;28;20025;-44
2020/12/23 01:04:08;;;;;;;2.47;0.90;;;;;;;11.28;80.89;96246.81;1044939;28;20021;-43
2020/12/23 01:04:39;;;;;;;1.80;0.80;;;;;;;11.26;80.74;96249.66;1044749;28;20104;-44
2020/12/23 01:05:09;;;;;;;2.57;0.90;;;;;;;11.28;80.78;96260.00;1044791;28;20347;-43
2020/12/23 01:05:40;;;;;;;2.40;1.00;;;;;;;11.35;80.22;96253.75;1044803;28;20009;-44
2020/12/23 01:06:10;;;;;;;1.77;0.90;;;;;;;11.34;80.67;96257.41;1044793;28;20012;-43
2020/12/23 01:06:41;;;;;;;2.87;0.83;;;;;;;11.34;80.63;96264.47;1045108;28;20024;-43
2020/12/23 01:07:11;;;;;;;3.13;0.90;;;;;;;11.38;80.46;96263.09;1044848;28;20135;-43
2020/12/23 01:07:42;;;;;;;2.10;0.90;;;;;;;11.38;80.45;96255.97;1045180;28;20016;-42
2020/12/23 01:08:12;;;;;;;1.87;0.87;;;;;;;11.38;80.10;96255.19;1045299;28;20024;-42
2020/12/23 01:08:43;;;;;;;1.10;0.60;;;;;;;11.39;80.41;96254.19;1045345;28;20090;-43
2020/12/23 01:09:13;;;;;;;2.10;0.80;;;;;;;11.38;80.02;96248.06;1045185;28;20049;-42
2020/12/23 01:09:44;;;;;;;2.07;0.80;;;;;;;11.45;79.64;96244.66;1045204;28;20012;-42
2020/12/23 01:10:14;;;;;;;2.63;0.80;;;;;;;11.45;79.82;96245.50;1045368;28;20445;-44
2020/12/23 01:10:45;;;;;;;1.63;0.80;;;;;;;11.43;79.83;96249.31;1045312;28;20162;-43
2020/12/23 01:11:16;;;;;;;1.48;0.70;;;;;;;11.45;79.65;96252.56;1045295;28;20370;-42
2020/12/23 01:11:50;;;;;;;2.00;0.93;;;;;;;11.45;79.59;96247.28;1045211;28;20049;-43
2020/12/23 01:12:21;;;;;;;2.25;0.80;;;;;;;11.41;79.59;96252.16;1045167;28;20017;-42
2020/12/23 01:12:51;;;;;;;2.23;0.80;;;;;;;11.41;79.81;96253.97;1044961;28;20016;-42
2020/12/23 01:13:21;;;;;;;1.40;0.80;;;;;;;11.43;79.87;96251.97;1045040;28;20013;-44
2020/12/23 01:13:52;;;;;;;1.57;0.70;;;;;;;11.40;79.84;96249.72;1045032;28;20009;-42
2020/12/23 01:14:22;;;;;;;1.67;0.73;;;;;;;11.34;80.00;96244.22;1044730;28;20084;-43
2020/12/23 01:14:53;;;;;;;1.60;0.83;;;;;;;11.35;80.04;96253.75;1044714;28;20029;-44
2020/12/23 01:15:23;;;;;;;1.97;0.83;;;;;;;11.34;79.63;96252.13;1044634;28;20016;-43
2020/12/23 01:15:54;;;;;;;2.57;0.90;;;;;;;11.33;80.11;96263.69;1044637;28;20074;-43
2020/12/23 01:16:24;;;;;;;1.57;0.73;;;;;;;11.32;79.82;96253.34;1044999;28;20523;-43
2020/12/23 01:16:55;;;;;;;2.83;0.90;;;;;;;11.33;79.71;96253.13;1044590;28;20024;-43
2020/12/23 01:17:25;;;;;;;2.10;0.90;;;;;;;11.31;79.68;96255.16;1044687;28;20017;-44
2020/12/23 01:17:56;;;;;;;1.90;0.80;;;;;;;11.30;79.97;96264.06;1044543;28;20065;-44
2020/12/23 01:18:26;;;;;;;2.53;0.77;;;;;;;11.33;80.25;96268.97;1044719;28;20017;-43
2020/12/23 01:18:57;;;;;;;1.90;0.90;;;;;;;11.33;79.90;96265.50;1044865;28;20013;-43
2020/12/23 01:19:27;;;;;;;1.80;0.90;;;;;;;11.36;79.54;96267.75;1044899;28;20457;-43
2020/12/23 01:19:58;;;;;;;1.67;0.80;;;;;;;11.35;79.54;96264.28;1044979;28;20024;-43
2020/12/23 01:20:28;;;;;;;1.90;0.80;;;;;;;11.34;79.29;96261.84;1044969;28;20024;-43
2020/12/23 01:20:59;;;;;;;1.73;0.80;;;;;;;11.32;79.58;96274.41;1044619;28;20052;-43
2020/12/23 01:21:29;;;;;;;1.33;0.70;;;;;;;11.36;79.52;96265.94;1044522;28;20087;-43
2020/12/23 01:22:00;;;;;;;2.77;0.70;;;;;;;11.34;79.43;96265.31;1044745;28;20016;-43
2020/12/23 01:22:30;;;;;;;1.93;0.97;;;;;;;11.37;79.51;96274.63;1044700;28;20016;-43
2020/12/23 01:23:01;;;;;;;1.83;0.90;;;;;;;11.36;79.41;96265.94;1044688;28;20017;-43
2020/12/23 01:23:31;;;;;;;1.40;0.80;;;;;;;11.34;79.75;96267.13;1044904;28;20347;-42
2020/12/23 01:24:01;;;;;;;4.10;1.00;;;;;;;11.32;79.72;96269.97;1044789;28;20013;-42
2020/12/23 01:24:32;;;;;;;2.57;0.83;;;;;;;11.33;79.09;96276.88;1045057;28;20534;-43
2020/12/23 01:25:02;;;;;;;2.80;0.90;;;;;;;11.32;79.23;96269.16;1044795;28;20071;-43
2020/12/23 01:25:33;;;;;;;2.03;0.73;;;;;;;11.32;79.55;96277.88;1044940;28;20107;-43
2020/12/23 01:26:03;;;;;;;1.90;0.83;;;;;;;11.33;79.04;96263.69;1044448;28;20099;-43
2020/12/23 01:26:34;;;;;;;2.80;0.80;;;;;;;11.37;78.93;96272.84;1044661;28;20067;-43
2020/12/23 01:27:04;;;;;;;1.87;0.77;;;;;;;11.40;79.20;96271.59;1044446;28;20021;-44
2020/12/23 01:27:35;;;;;;;3.80;0.90;;;;;;;11.40;79.09;96266.34;1044617;28;20009;-44
2020/12/23 01:28:05;;;;;;;1.33;0.80;;;;;;;11.40;79.02;96265.53;1044804;28;20013;-43
2020/12/23 01:28:36;;;;;;;2.50;0.90;;;;;;;11.41;78.68;96264.53;1044897;28;20071;-44
2020/12/23 01:29:06;;;;;;;1.90;0.80;;;;;;;11.38;79.03;96274.44;1044881;28;20020;-43
2020/12/23 01:29:37;;;;;;;2.03;0.90;;;;;;;11.36;78.90;96273.03;1044351;28;20036;-43
2020/12/23 01:30:07;;;;;;;1.70;0.90;;;;;;;11.38;79.20;96265.72;1044508;28;20408;-45
2020/12/23 01:30:38;;;;;;;1.50;0.70;;;;;;;11.36;78.75;96262.50;1044713;28;20024;-42
2020/12/23 01:31:08;;;;;;;2.00;0.90;;;;;;;11.36;78.96;96268.56;1044643;28;20458;-44
2020/12/23 01:31:41;;;;;;;2.20;0.87;;;;;;;11.35;79.24;96272.19;1044779;28;20017;-42
2020/12/23 01:32:11;;;;;;;3.10;0.90;;;;;;;11.33;79.29;96271.59;1044873;28;20489;-42
2020/12/23 01:32:43;;;;;;;1.87;0.80;;;;;;;11.36;78.89;96267.75;1044844;28;20067;-44
2020/12/23 01:33:13;;;;;;;1.98;0.80;;;;;;;11.34;78.92;96264.47;1044954;28;20020;-43
2020/12/23 01:33:44;;;;;;;1.80;0.80;;;;;;;11.37;78.35;96262.28;1044430;28;20036;-43
2020/12/23 01:34:14;;;;;;;2.70;0.87;;;;;;;11.36;78.83;96265.13;1044506;28;20428;-43
2020/12/23 01:34:45;;;;;;;1.53;0.90;;;;;;;11.37;78.72;96259.66;1044408;28;20028;-43
2020/12/23 01:35:15;;;;;;;1.90;0.90;;;;;;;11.40;78.20;96263.69;1044651;28;20462;-43
2020/12/23 01:35:46;;;;;;;2.13;0.80;;;;;;;11.40;78.63;96262.91;1044813;28;20381;-43
2020/12/23 01:36:16;;;;;;;2.40;0.80;;;;;;;11.36;78.60;96271.19;1044808;28;20025;-42
2020/12/23 01:36:50;;;;;;;2.73;0.70;;;;;;;11.37;78.52;96272.84;1044797;28;20028;-43
2020/12/23 01:37:21;;;;;;;2.30;0.90;;;;;;;11.38;78.88;96263.09;1044898;28;20032;-43
2020/12/23 01:37:51;;;;;;;1.70;0.77;;;;;;;11.36;78.54;96259.84;1044939;28;20424;-43
2020/12/23 01:38:21;;;;;;;2.50;0.90;;;;;;;11.34;78.46;96257.41;1044894;28;20028;-43
2020/12/23 01:38:52;;;;;;;1.60;0.80;;;;;;;11.32;79.05;96263.88;1044444;28;20025;-43
2020/12/23 01:39:22;;;;;;;1.40;0.70;;;;;;;11.31;78.94;96270.16;1044684;28;20481;-43
2020/12/23 01:39:53;;;;;;;1.10;0.70;;;;;;;11.28;78.98;96266.09;1044466;28;20055;-43
2020/12/23 01:40:23;;;;;;;1.60;0.80;;;;;;;11.27;79.44;96271.56;1044720;28;20072;-43
2020/12/23 01:40:58;;;;;;;2.20;0.83;;;;;;;11.26;79.03;96265.47;1044861;28;20021;-43
2020/12/23 01:41:28;;;;;;;2.10;0.80;;;;;;;11.26;78.94;96268.09;1044822;28;20025;-43
2020/12/23 01:41:59;;;;;;;1.53;0.80;;;;;;;11.25;79.07;96269.13;1044776;28;20020;-43
2020/12/23 01:42:32;;;;;;;1.37;0.80;;;;;;;11.25;79.12;96268.28;1044451;28;20083;-42
2020/12/23 01:43:06;;;;;;;2.30;0.80;;;;;;;11.25;79.05;96274.41;1044353;28;20043;-42
2020/12/23 01:43:38;;;;;;;2.40;0.90;;;;;;;11.25;78.95;96273.56;1044450;28;20100;-42
2020/12/23 01:44:09;;;;;;;2.45;0.80;;;;;;;11.24;79.05;96272.78;1044442;28;20455;-42
2020/12/23 01:44:39;;;;;;;2.77;0.80;;;;;;;11.21;79.14;96273.16;1044762;28;20023;-42
2020/12/23 01:45:09;;;;;;;1.63;0.80;;;;;;;11.18;79.16;96270.91;1044762;28;20029;-42
2020/12/23 01:45:40;;;;;;;2.60;0.87;;;;;;;11.20;79.60;96269.72;1044749;28;20020;-43
2020/12/23 01:46:10;;;;;;;1.87;0.90;;;;;;;11.17;79.62;96261.38;1044847;28;20108;-43
2020/12/23 01:46:41;;;;;;;2.27;0.90;;;;;;;11.14;79.07;96261.75;1044284;28;20495;-43
2020/12/23 01:47:16;;;;;;;2.03;0.80;;;;;;;11.16;79.45;96275.56;1044357;28;20089;-43
2020/12/23 01:47:50;;;;;;;2.78;0.80;;;;;;;11.16;79.01;96276.38;1040224;28;20021;-43
2020/12/23 01:48:21;;;;;;;2.00;0.90;;;;;;;11.13;79.93;96271.50;1035701;28;20029;-43
2020/12/23 01:48:52;;;;;;;2.22;1.00;;;;;;;11.14;79.00;96262.56;1033353;28;20085;-43
2020/12/23 01:49:22;;;;;;;1.43;0.70;;;;;;;11.15;79.16;96271.31;1036992;28;20033;-43
2020/12/23 01:49:53;;;;;;;2.00;0.90;;;;;;;11.14;79.64;96269.66;1040510;28;20017;-43
2020/12/23 01:50:23;;;;;;;2.13;0.90;;;;;;;11.15;79.63;96261.56;1044307;28;20522;-42
2020/12/23 01:50:57;;;;;;;1.83;0.80;;;;;;;11.12;79.39;96269.06;1040262;28;20095;-43
2020/12/23 01:51:28;;;;;;;1.48;0.75;;;;;;;11.11;79.56;96268.22;1040243;28;20032;-43
2020/12/23 01:51:58;;;;;;;1.20;0.70;;;;;;;11.11;79.16;96268.22;1040411;28;20429;-43
2020/12/23 01:52:29;;;;;;;2.00;0.90;;;;;;;11.14;79.47;96274.94;1041014;28;20379;-43
2020/12/23 01:52:59;;;;;;;2.37;1.00;;;;;;;11.10;79.36;96265.78;1044568;28;20017;-43
2020/12/23 01:53:30;;;;;;;2.47;0.93;;;;;;;11.12;79.55;96266.44;1040415;28;20462;-44
2020/12/23 01:54:00;;;;;;;1.83;0.87;;;;;;;11.11;79.51;96273.50;1040381;28;20025;-43
2020/12/23 01:54:31;;;;;;;2.53;0.90;;;;;;;11.11;79.44;96265.59;1040147;28;20093;-43
2020/12/23 01:55:01;;;;;;;1.73;0.90;;;;;;;11.11;79.72;96265.59;1036202;28;20506;-43
2020/12/23 01:55:32;;;;;;;2.03;1.00;;;;;;;11.10;79.74;96263.97;1044456;28;20016;-43
2020/12/23 01:56:02;;;;;;;2.40;0.90;;;;;;;11.08;79.55;96255.44;1044384;28;20044;-43
2020/12/23 01:56:33;;;;;;;2.07;0.87;;;;;;;11.07;79.21;96253.00;1044406;28;20013;-43
2020/12/23 01:57:03;;;;;;;2.33;0.93;;;;;;;11.05;79.45;96262.94;1040353;28;20017;-44
2020/12/23 01:57:34;;;;;;;2.07;0.90;;;;;;;11.09;79.57;96251.00;1036315;28;20018;-47
2020/12/23 01:58:04;;;;;;;1.57;0.80;;;;;;;11.07;79.50;96245.09;1036194;28;20018;-43
2020/12/23 01:58:35;;;;;;;1.80;0.80;;;;;;;11.11;79.07;96246.34;1036262;28;20022;-43
2020/12/23 01:59:05;;;;;;;2.60;0.90;;;;;;;11.11;78.82;96248.97;1036439;28;20006;-42
2020/12/23 01:59:37;;;;;;;4.07;1.07;;;;;;;11.11;79.50;96251.63;1044339;28;20064;-42
2020/12/23 02:00:08;;;;;;;1.90;0.93;;;;;;;11.09;78.88;96248.38;1044357;28;20056;-43
2020/12/23 02:00:39;;;;;;;3.27;0.97;;;;;;;11.13;78.89;96244.31;1044363;28;20159;-41
2020/12/23 02:01:09;;;;;;;1.80;0.70;;;;;;;11.14;79.23;96251.22;1044784;28;20408;-43
2020/12/23 02:01:49;;;;;;;2.93;0.70;;;;;;;11.13;79.13;96250.41;1040343;28;20095;-44
2020/12/23 02:02:33;;;;;;;5.18;1.23;;;;;;;11.13;78.66;96245.16;1036317;28;20014;-42
2020/12/23 02:03:04;;;;;;;3.65;0.88;;;;;;;11.12;78.68;96247.97;1036012;28;20111;-42
2020/12/23 02:03:35;;;;;;;1.63;0.73;;;;;;;11.14;78.95;96248.59;1042926;28;20112;-45
2020/12/23 02:04:05;;;;;;;1.93;0.80;;;;;;;11.15;78.69;96243.13;1044614;28;20016;-42
2020/12/23 02:04:36;;;;;;;1.50;0.70;;;;;;;11.15;78.30;96245.75;1044719;28;20092;-45
2020/12/23 02:05:07;;;;;;;2.63;0.90;;;;;;;11.14;78.35;96241.47;1044733;28;20009;-44
2020/12/23 02:05:41;;;;;;;2.38;0.88;;;;;;;11.18;78.43;96239.28;1044861;28;20040;-42
2020/12/23 02:06:12;;;;;;;2.25;1.13;;;;;;;11.16;78.66;96243.97;1044480;28;20429;-43
2020/12/23 02:06:42;;;;;;;2.07;0.70;;;;;;;11.17;78.28;96240.28;1044458;28;20013;-44
2020/12/23 02:07:12;;;;;;;1.50;0.70;;;;;;;11.16;78.08;96242.13;1032153;28;20049;-43
2020/12/23 02:07:43;;;;;;;3.57;0.80;;;;;;;11.13;78.48;96234.59;1032247;28;20467;-43
2020/12/23 02:08:13;;;;;;;1.53;0.90;;;;;;;11.12;78.56;96253.25;1036401;28;20041;-42
2020/12/23 02:08:44;;;;;;;1.70;0.70;;;;;;;11.16;78.44;96246.59;1036472;28;20106;-43
2020/12/23 02:09:15;;;;;;;2.30;0.87;;;;;;;11.13;78.24;96245.16;1044713;28;20016;-42
2020/12/23 02:09:48;;;;;;;1.50;0.70;;;;;;;11.16;77.97;96243.97;1044394;28;20187;-42
2020/12/23 02:10:18;;;;;;;1.92;0.80;;;;;;;11.16;78.23;96244.75;1044458;28;20126;-43
2020/12/23 02:10:49;;;;;;;1.60;0.80;;;;;;;11.14;78.41;96240.69;1040251;28;20486;-44
2020/12/23 02:11:20;;;;;;;2.10;0.80;;;;;;;11.13;78.49;96228.50;1040726;28;20100;-44
2020/12/23 02:11:50;;;;;;;1.80;0.73;;;;;;;11.12;78.10;96232.16;1044499;28;20437;-43
2020/12/23 02:12:21;;;;;;;1.30;0.73;;;;;;;11.13;78.49;96233.78;1040257;28;20017;-43
2020/12/23 02:12:53;;;;;;;1.20;0.70;;;;;;;11.11;78.34;96226.06;1040312;28;20099;-44
2020/12/23 02:13:39;;;;;;;1.83;0.90;;;;;;;11.13;78.05;96228.50;1044373;28;20169;-44
2020/12/23 02:14:10;;;;;;;1.77;0.80;;;;;;;11.10;78.25;96228.91;1044468;28;20059;-42
2020/12/23 02:14:40;;;;;;;2.17;0.93;;;;;;;11.08;78.40;96237.00;1044483;28;20021;-43
2020/12/23 02:15:11;;;;;;;2.27;0.90;;;;;;;11.06;78.51;96235.59;1044659;28;20016;-43
2020/12/23 02:15:42;;;;;;;2.55;0.82;;;;;;;11.00;78.56;96240.59;1044731;28;20107;-44
2020/12/23 02:16:13;;;;;;;2.20;0.93;;;;;;;11.00;79.23;96245.06;1044947;28;20021;-44
2020/12/23 02:16:43;;;;;;;1.60;0.80;;;;;;;10.98;79.15;96234.72;1044752;28;20035;-44
2020/12/23 02:17:14;;;;;;;2.13;0.90;;;;;;;10.97;79.15;96237.56;1044789;28;20049;-43
2020/12/23 02:17:44;;;;;;;1.83;0.80;;;;;;;10.95;79.47;96240.38;1045349;28;20357;-43
2020/12/23 02:18:15;;;;;;;2.63;0.80;;;;;;;10.96;79.37;96228.84;1045092;28;20126;-43
2020/12/23 02:18:45;;;;;;;1.60;0.83;;;;;;;10.93;79.12;96234.50;1044621;28;20092;-44
2020/12/23 02:19:16;;;;;;;1.80;0.87;;;;;;;10.90;79.63;96234.91;1044569;28;20020;-43
2020/12/23 02:19:49;;;;;;;2.47;0.90;;;;;;;10.93;79.36;96234.50;1044608;28;20481;-43
2020/12/23 02:20:20;;;;;;;2.40;0.90;;;;;;;10.96;78.63;96239.38;1044444;28;20024;-43
2020/12/23 02:20:50;;;;;;;1.80;0.90;;;;;;;10.91;79.40;96239.13;1044426;28;20389;-43
2020/12/23 02:21:21;;;;;;;1.47;0.70;;;;;;;10.94;79.39;96245.84;1044410;28;20504;-43
2020/12/23 02:21:51;;;;;;;1.90;0.87;;;;;;;10.95;78.80;96243.03;1036200;28;20010;-43
2020/12/23 02:22:29;;;;;;;3.33;0.90;;;;;;;11.00;78.57;96232.69;1040256;28;20022;-42
2020/12/23 02:23:00;;;;;;;1.65;0.70;;;;;;;10.98;78.99;96232.09;1036175;28;20018;-43
2020/12/23 02:23:30;;;;;;;1.60;0.70;;;;;;;10.98;78.83;96232.09;1038351;28;20026;-42
2020/12/23 02:24:01;;;;;;;1.80;0.80;;;;;;;10.99;78.92;96227.63;1044608;28;20464;-43
2020/12/23 02:24:31;;;;;;;2.03;0.80;;;;;;;10.99;79.27;96230.25;1040860;28;20056;-42
2020/12/23 02:25:02;;;;;;;1.70;0.80;;;;;;;11.00;78.82;96229.28;1040723;28;20040;-43
2020/12/23 02:25:32;;;;;;;2.20;0.80;;;;;;;11.01;78.95;96230.91;1040453;28;20034;-42